createdAt,value
2022-12-31T00:00:34.228Z,3.72
2022-12-31T00:03:01.495Z,3.30
2022-12-31T00:05:32.048Z,3.33
2022-12-31T00:07:59.578Z,3.35
2022-12-31T00:10:26.641Z,3.40
2022-12-31T00:12:53.809Z,3.40
2022-12-31T00:15:21.185Z,3.58
2022-12-31T00:17:48.284Z,3.13
2022-12-31T00:20:15.438Z,3.30
2022-12-31T00:22:42.482Z,3.90
2022-12-31T00:25:10.149Z,3.33
2022-12-31T00:27:38.422Z,3.22
2022-12-31T00:30:06.239Z,3.03
2022-12-31T00:32:33.317Z,3.25
2022-12-31T00:35:00.364Z,3.17
2022-12-31T00:37:27.498Z,3.35
2022-12-31T00:39:54.575Z,3.10
2022-12-31T00:42:21.739Z,3.08
2022-12-31T00:44:48.900Z,2.95
2022-12-31T00:47:16.104Z,3.08
2022-12-31T00:49:43.155Z,3.28
2022-12-31T00:52:13.826Z,3.33
2022-12-31T00:54:41.711Z,3.70
2022-12-31T00:57:08.779Z,3.50
2022-12-31T00:59:35.957Z,4.43
2022-12-31T01:02:03.205Z,4.63
2022-12-31T01:04:30.334Z,4.38
2022-12-31T01:06:57.372Z,3.70
2022-12-31T01:09:24.426Z,3.85
2022-12-31T01:11:52.294Z,3.83
2022-12-31T01:14:20.669Z,3.72
2022-12-31T01:16:51.261Z,4.10
2022-12-31T01:19:22.768Z,3.83
2022-12-31T01:21:50.914Z,3.15
2022-12-31T01:24:19.102Z,3.22
2022-12-31T01:26:47.535Z,3.50
2022-12-31T01:29:17.014Z,3.38
2022-12-31T01:31:44.287Z,3.72
2022-12-31T01:34:11.444Z,3.17
2022-12-31T01:36:39.259Z,3.15
2022-12-31T01:39:08.724Z,3.67
2022-12-31T01:41:43.618Z,3.63
2022-12-31T01:44:13.921Z,3.55
2022-12-31T01:47:01.720Z,3.38
2022-12-31T01:49:44.570Z,3.28
2022-12-31T01:52:28.579Z,3.15
2022-12-31T01:55:22.818Z,3.22
2022-12-31T01:57:54.746Z,3.20
2022-12-31T02:00:21.874Z,3.60
2022-12-31T02:02:49.315Z,3.17
2022-12-31T02:05:37.109Z,3.40
2022-12-31T02:08:05.923Z,2.55
2022-12-31T02:10:33.332Z,2.63
2022-12-31T02:13:00.586Z,2.95
2022-12-31T02:15:52.711Z,3.00
2022-12-31T02:22:01.132Z,2.10
2022-12-31T02:24:53.058Z,2.22
2022-12-31T02:27:52.211Z,2.88
2022-12-31T02:30:24.939Z,2.70
2022-12-31T02:33:09.748Z,3.08
2022-12-31T02:36:03.856Z,2.95
2022-12-31T02:38:35.618Z,2.65
2022-12-31T02:43:30.191Z,2.45
2022-12-31T02:46:14.345Z,2.95
2022-12-31T02:49:05.185Z,2.80
2022-12-31T02:52:11.153Z,2.92
2022-12-31T02:55:18.899Z,2.70
2022-12-31T02:58:56.483Z,2.55
2022-12-31T03:01:52.342Z,2.40
2022-12-31T03:04:34.316Z,2.85
2022-12-31T03:07:14.834Z,3.13
2022-12-31T03:09:41.978Z,3.22
2022-12-31T03:12:30.409Z,2.88
2022-12-31T03:14:58.170Z,2.83
2022-12-31T03:17:26.149Z,3.00
2022-12-31T03:20:11.976Z,2.80
2022-12-31T03:22:42.174Z,3.00
2022-12-31T03:25:36.419Z,3.22
2022-12-31T03:28:10.513Z,2.58
2022-12-31T03:30:41.482Z,3.13
2022-12-31T03:33:09.011Z,2.65
2022-12-31T03:35:40.337Z,2.78
2022-12-31T03:38:07.939Z,2.58
2022-12-31T03:40:44.175Z,2.70
2022-12-31T03:43:11.685Z,2.92
2022-12-31T03:45:39.013Z,3.40
2022-12-31T03:48:08.767Z,3.28
2022-12-31T03:50:36.591Z,3.30
2022-12-31T03:53:03.929Z,3.08
2022-12-31T03:55:31.121Z,3.15
2022-12-31T03:57:58.422Z,3.55
2022-12-31T04:00:25.771Z,3.38
2022-12-31T04:02:53.342Z,3.95
2022-12-31T04:05:21.801Z,3.55
2022-12-31T04:07:49.344Z,3.70
2022-12-31T04:10:18.402Z,3.83
2022-12-31T04:12:46.109Z,4.13
2022-12-31T04:15:20.492Z,3.83
2022-12-31T04:17:48.450Z,3.83
2022-12-31T04:20:16.224Z,3.70
2022-12-31T04:22:44.174Z,3.97
2022-12-31T04:25:11.771Z,3.63
2022-12-31T04:27:41.453Z,3.83
2022-12-31T04:30:10.023Z,4.10
2022-12-31T04:32:37.207Z,4.07
2022-12-31T04:35:04.757Z,4.05
2022-12-31T04:37:31.870Z,4.07
2022-12-31T04:40:05.164Z,3.83
2022-12-31T04:42:33.341Z,3.50
2022-12-31T04:45:00.453Z,3.30
2022-12-31T04:47:27.790Z,3.58
2022-12-31T04:49:54.880Z,3.60
2022-12-31T04:52:22.339Z,3.33
2022-12-31T04:54:49.348Z,3.70
2022-12-31T04:57:16.438Z,3.30
2022-12-31T04:59:43.564Z,3.55
2022-12-31T05:02:10.910Z,3.42
2022-12-31T05:04:38.153Z,3.40
2022-12-31T05:07:05.260Z,3.45
2022-12-31T05:09:32.323Z,3.25
2022-12-31T05:11:59.558Z,3.42
2022-12-31T05:14:26.844Z,3.30
2022-12-31T05:16:54.124Z,3.53
2022-12-31T05:19:21.267Z,3.38
2022-12-31T05:22:08.310Z,3.83
2022-12-31T05:24:35.389Z,3.28
2022-12-31T05:27:02.746Z,3.65
2022-12-31T05:29:29.797Z,3.53
2022-12-31T05:31:56.954Z,3.63
2022-12-31T05:34:24.001Z,3.50
2022-12-31T05:36:51.321Z,4.05
2022-12-31T05:39:18.531Z,3.83
2022-12-31T05:41:45.617Z,3.15
2022-12-31T05:44:12.966Z,2.92
2022-12-31T05:46:40.188Z,3.30
2022-12-31T05:49:07.307Z,3.10
2022-12-31T05:51:34.604Z,3.35
2022-12-31T05:54:01.679Z,2.67
2022-12-31T05:56:28.702Z,3.25
2022-12-31T05:58:55.863Z,3.03
2022-12-31T06:01:23.299Z,3.55
2022-12-31T06:03:50.659Z,3.45
2022-12-31T06:06:17.823Z,3.55
2022-12-31T06:08:50.482Z,2.97
2022-12-31T06:11:17.611Z,3.35
2022-12-31T06:13:44.770Z,2.58
2022-12-31T06:16:13.752Z,3.10
2022-12-31T06:18:41.272Z,3.30
2022-12-31T06:21:08.789Z,3.60
2022-12-31T06:23:35.843Z,3.33
2022-12-31T06:26:05.442Z,3.00
2022-12-31T06:28:33.010Z,3.30
2022-12-31T06:31:05.412Z,3.70
2022-12-31T06:33:33.754Z,2.90
2022-12-31T06:36:03.894Z,3.58
2022-12-31T06:38:34.210Z,3.08
2022-12-31T06:41:06.401Z,3.25
2022-12-31T06:43:34.794Z,3.55
2022-12-31T06:46:06.960Z,3.50
2022-12-31T06:48:34.558Z,3.50
2022-12-31T06:51:16.799Z,4.03
2022-12-31T06:53:46.453Z,3.83
2022-12-31T06:56:31.267Z,4.20
2022-12-31T06:59:01.269Z,4.05
2022-12-31T07:01:57.656Z,4.03
2022-12-31T07:04:58.727Z,3.60
2022-12-31T07:07:50.169Z,3.72
2022-12-31T07:10:32.214Z,3.90
2022-12-31T07:16:36.209Z,3.25
2022-12-31T07:19:18.034Z,4.50
2022-12-31T07:21:45.645Z,5.15
2022-12-31T07:24:13.701Z,5.00
2022-12-31T07:27:20.408Z,5.10
2022-12-31T07:29:50.410Z,5.13
2022-12-31T07:32:38.027Z,10.57
2022-12-31T07:35:20.443Z,9.90
2022-12-31T07:38:42.571Z,7.95
2022-12-31T07:41:49.599Z,5.60
2022-12-31T07:44:57.774Z,3.85
2022-12-31T07:47:28.198Z,2.92
2022-12-31T07:49:57.649Z,2.88
2022-12-31T07:52:25.424Z,2.38
2022-12-31T07:54:52.586Z,2.28
2022-12-31T07:57:21.519Z,1.67
2022-12-31T08:00:00.426Z,1.80
2022-12-31T08:03:22.452Z,2.00
2022-12-31T08:06:11.026Z,2.28
2022-12-31T08:09:01.489Z,3.78
2022-12-31T08:12:02.229Z,4.80
2022-12-31T08:14:30.552Z,5.00
2022-12-31T08:16:58.171Z,5.18
2022-12-31T08:19:32.481Z,4.05
2022-12-31T08:22:32.569Z,3.70
2022-12-31T08:25:31.386Z,3.45
2022-12-31T08:28:22.176Z,2.85
2022-12-31T08:31:09.725Z,3.05
2022-12-31T08:34:25.487Z,2.63
2022-12-31T08:37:01.070Z,2.80
2022-12-31T08:40:01.639Z,2.85
2022-12-31T08:42:33.704Z,2.70
2022-12-31T08:45:20.308Z,2.80
2022-12-31T08:48:03.275Z,2.85
2022-12-31T08:50:30.827Z,2.67
2022-12-31T08:52:58.544Z,2.50
2022-12-31T08:55:26.005Z,2.38
2022-12-31T08:58:20.413Z,3.85
2022-12-31T09:00:50.822Z,4.10
2022-12-31T09:03:39.256Z,4.50
2022-12-31T09:06:15.128Z,5.05
2022-12-31T09:08:45.082Z,4.13
2022-12-31T09:11:23.256Z,3.28
2022-12-31T09:14:14.714Z,3.50
2022-12-31T09:17:38.868Z,2.85
2022-12-31T09:20:07.411Z,2.53
2022-12-31T09:22:34.816Z,3.63
2022-12-31T09:25:02.605Z,2.50
2022-12-31T09:27:48.715Z,2.10
2022-12-31T09:30:18.231Z,1.70
2022-12-31T09:33:45.542Z,1.90
2022-12-31T09:36:27.552Z,1.38
2022-12-31T09:42:11.935Z,2.35
2022-12-31T09:44:59.863Z,2.10
2022-12-31T09:48:17.011Z,1.80
2022-12-31T09:51:30.236Z,1.80
2022-12-31T09:54:23.964Z,1.70
2022-12-31T09:56:59.162Z,1.60
2022-12-31T09:59:46.688Z,1.67
2022-12-31T10:02:28.956Z,1.50
2022-12-31T10:05:43.237Z,1.60
2022-12-31T10:08:44.028Z,1.20
2022-12-31T10:11:18.997Z,1.30
2022-12-31T10:14:28.128Z,1.15
2022-12-31T10:17:40.375Z,1.00
2022-12-31T10:20:25.858Z,0.95
2022-12-31T10:23:22.853Z,1.20
2022-12-31T10:26:23.154Z,0.90
2022-12-31T10:28:59.012Z,1.00
2022-12-31T10:32:01.474Z,0.80
2022-12-31T10:35:15.430Z,0.73
2022-12-31T10:37:57.030Z,0.60
2022-12-31T10:40:50.239Z,0.70
2022-12-31T10:43:40.234Z,0.75
2022-12-31T10:46:31.750Z,0.63
2022-12-31T10:49:35.373Z,0.73
2022-12-31T10:52:28.924Z,0.65
2022-12-31T10:55:39.654Z,0.65
2022-12-31T10:58:44.359Z,0.82
2022-12-31T11:01:55.085Z,1.10
2022-12-31T11:04:49.716Z,1.05
2022-12-31T11:07:54.688Z,1.25
2022-12-31T11:11:28.149Z,0.95
2022-12-31T11:14:35.168Z,1.10
2022-12-31T11:17:28.747Z,0.80
2022-12-31T11:20:28.590Z,1.38
2022-12-31T11:23:19.622Z,1.50
2022-12-31T11:26:26.400Z,1.00
2022-12-31T11:29:03.971Z,1.00
2022-12-31T11:32:01.963Z,0.93
2022-12-31T11:34:38.298Z,0.68
2022-12-31T11:37:35.569Z,0.73
2022-12-31T11:40:42.263Z,0.65
2022-12-31T11:43:36.337Z,0.93
2022-12-31T11:46:23.729Z,0.73
2022-12-31T11:49:11.067Z,0.95
2022-12-31T11:52:10.831Z,1.00
2022-12-31T11:54:54.179Z,0.90
2022-12-31T11:57:29.874Z,0.70
2022-12-31T12:00:14.952Z,0.88
2022-12-31T12:02:51.141Z,0.80
2022-12-31T12:05:23.088Z,0.85
2022-12-31T12:10:35.748Z,0.73
2022-12-31T12:13:13.579Z,0.70
2022-12-31T12:15:46.545Z,0.77
2022-12-31T12:19:02.131Z,1.10
2022-12-31T12:21:30.009Z,1.50
2022-12-31T12:24:05.882Z,1.60
2022-12-31T12:26:41.610Z,1.90
2022-12-31T12:29:10.020Z,1.80
2022-12-31T12:31:38.220Z,1.90
2022-12-31T12:34:07.239Z,2.72
2022-12-31T12:36:34.349Z,2.75
2022-12-31T12:39:06.222Z,3.28
2022-12-31T12:41:33.414Z,2.80
2022-12-31T12:44:13.680Z,2.40
2022-12-31T12:46:49.573Z,2.15
2022-12-31T12:49:49.911Z,1.98
2022-12-31T12:52:34.769Z,1.90
2022-12-31T12:55:27.670Z,1.90
2022-12-31T12:58:34.747Z,1.80
2022-12-31T13:01:23.773Z,1.67
2022-12-31T13:04:33.117Z,2.03
2022-12-31T13:07:22.148Z,2.40
2022-12-31T13:10:14.362Z,2.72
2022-12-31T13:16:16.393Z,1.75
2022-12-31T13:19:10.450Z,1.60
2022-12-31T13:21:49.587Z,1.88
2022-12-31T13:24:45.428Z,2.00
2022-12-31T13:27:29.857Z,1.52
2022-12-31T13:30:02.449Z,1.83
2022-12-31T13:32:42.782Z,2.03
2022-12-31T13:36:00.449Z,2.53
2022-12-31T13:38:49.046Z,2.40
2022-12-31T13:41:34.623Z,2.70
2022-12-31T13:44:20.049Z,2.53
2022-12-31T13:47:15.593Z,2.85
2022-12-31T13:49:54.676Z,2.75
2022-12-31T13:52:27.617Z,2.70
2022-12-31T13:55:19.345Z,2.95
2022-12-31T13:58:06.240Z,2.80
2022-12-31T14:00:51.158Z,2.58
2022-12-31T14:03:41.255Z,2.50
2022-12-31T14:06:27.497Z,2.45
2022-12-31T14:08:54.876Z,2.33
2022-12-31T14:12:09.861Z,2.58
2022-12-31T14:15:13.998Z,2.05
2022-12-31T14:18:29.451Z,2.38
2022-12-31T14:21:04.198Z,2.10
2022-12-31T14:24:12.618Z,2.45
2022-12-31T14:26:46.250Z,2.38
2022-12-31T14:29:33.371Z,2.50
2022-12-31T14:32:39.550Z,2.65
2022-12-31T14:35:41.164Z,2.80
2022-12-31T14:38:38.026Z,2.80
2022-12-31T14:41:31.989Z,3.15
2022-12-31T14:44:32.299Z,3.53
2022-12-31T14:47:36.422Z,3.17
2022-12-31T14:50:30.651Z,3.85
2022-12-31T14:53:03.568Z,4.28
2022-12-31T14:55:33.675Z,3.92
2022-12-31T15:01:06.587Z,3.95
2022-12-31T15:03:45.740Z,3.97
2022-12-31T15:06:57.410Z,4.20
2022-12-31T15:10:11.392Z,4.13
2022-12-31T15:13:06.983Z,3.97
2022-12-31T15:16:01.092Z,3.80
2022-12-31T15:18:58.392Z,4.10
2022-12-31T15:22:25.726Z,3.65
2022-12-31T15:24:53.070Z,3.78
2022-12-31T15:27:38.763Z,4.05
2022-12-31T15:30:07.793Z,4.13
2022-12-31T15:32:43.158Z,4.45
2022-12-31T15:35:22.099Z,4.22
2022-12-31T15:38:15.128Z,4.30
2022-12-31T15:40:50.717Z,4.53
2022-12-31T15:43:26.315Z,5.30
2022-12-31T15:45:55.958Z,5.30
2022-12-31T15:48:42.766Z,4.88
2022-12-31T15:51:43.353Z,5.45
2022-12-31T15:54:42.062Z,4.70
2022-12-31T15:57:39.426Z,6.55
2022-12-31T16:00:17.129Z,5.25
2022-12-31T16:02:53.342Z,5.70
2022-12-31T16:05:26.223Z,5.53
2022-12-31T16:07:58.725Z,6.35
2022-12-31T16:10:30.468Z,6.07
2022-12-31T16:12:59.234Z,5.80
2022-12-31T16:15:31.010Z,6.13
2022-12-31T16:18:10.648Z,6.00
2022-12-31T16:20:44.130Z,6.25
2022-12-31T16:23:26.401Z,5.75
2022-12-31T16:26:00.410Z,6.15
2022-12-31T16:28:33.109Z,7.25
2022-12-31T16:31:07.444Z,6.70
2022-12-31T16:33:34.800Z,5.00
2022-12-31T16:36:02.615Z,4.55
2022-12-31T16:38:37.897Z,4.30
2022-12-31T16:41:18.874Z,4.03
2022-12-31T16:43:50.372Z,4.95
2022-12-31T16:46:31.830Z,4.75
2022-12-31T16:49:05.149Z,4.78
2022-12-31T16:51:34.275Z,4.93
2022-12-31T16:54:02.936Z,5.28
2022-12-31T16:56:42.330Z,5.53
2022-12-31T16:59:24.187Z,5.20
2022-12-31T17:01:56.045Z,4.90
2022-12-31T17:04:24.645Z,5.13
2022-12-31T17:06:51.934Z,5.40
2022-12-31T17:09:33.714Z,6.03
2022-12-31T17:12:19.349Z,6.38
2022-12-31T17:14:51.582Z,5.75
2022-12-31T17:17:27.821Z,7.03
2022-12-31T17:20:01.267Z,7.82
2022-12-31T17:22:36.981Z,10.32
2022-12-31T17:25:18.441Z,8.93
2022-12-31T17:28:14.473Z,7.50
2022-12-31T17:30:41.852Z,6.85
2022-12-31T17:33:14.957Z,7.32
2022-12-31T17:35:45.349Z,7.45
2022-12-31T17:38:18.601Z,12.98
2022-12-31T17:40:55.789Z,17.42
2022-12-31T17:43:23.999Z,21.42
2022-12-31T17:45:53.009Z,18.90
2022-12-31T17:48:24.444Z,19.42
2022-12-31T17:50:54.893Z,18.42
2022-12-31T17:53:22.484Z,15.55
2022-12-31T17:55:53.859Z,13.73
2022-12-31T17:58:32.170Z,14.23
2022-12-31T18:01:00.692Z,15.18
2022-12-31T18:03:28.161Z,21.98
2022-12-31T18:05:55.355Z,21.67
2022-12-31T18:08:22.427Z,18.30
2022-12-31T18:10:49.710Z,15.60
2022-12-31T18:13:22.189Z,16.27
2022-12-31T18:15:49.592Z,12.88
2022-12-31T18:18:25.504Z,13.20
2022-12-31T18:21:01.584Z,14.63
2022-12-31T18:23:46.841Z,15.07
2022-12-31T18:26:21.076Z,12.70
2022-12-31T18:28:49.500Z,13.10
2022-12-31T18:31:30.255Z,11.05
2022-12-31T18:33:59.024Z,9.25
2022-12-31T18:36:29.533Z,9.02
2022-12-31T18:38:56.627Z,16.65
2022-12-31T18:41:27.708Z,12.27
2022-12-31T18:43:55.523Z,11.00
2022-12-31T18:46:24.976Z,9.98
2022-12-31T18:48:52.121Z,10.63
2022-12-31T18:51:31.336Z,10.00
2022-12-31T18:54:00.862Z,9.35
2022-12-31T18:56:28.662Z,8.98
2022-12-31T18:58:55.740Z,8.15
2022-12-31T19:01:38.921Z,9.43
2022-12-31T19:04:19.953Z,8.45
2022-12-31T19:06:50.415Z,8.80
2022-12-31T19:09:44.057Z,8.88
2022-12-31T19:12:05.639Z,8.27
2022-12-31T19:14:32.787Z,7.85
2022-12-31T19:19:29.043Z,7.90
2022-12-31T19:21:56.076Z,7.40
2022-12-31T19:24:26.752Z,6.30
2022-12-31T19:26:54.848Z,13.65
2022-12-31T19:29:26.100Z,22.88
2022-12-31T19:31:53.726Z,21.38
2022-12-31T19:34:21.031Z,18.63
2022-12-31T19:36:48.188Z,12.25
2022-12-31T19:39:18.856Z,10.75
2022-12-31T19:41:50.127Z,10.45
2022-12-31T19:44:21.919Z,8.43
2022-12-31T19:46:49.454Z,10.95
2022-12-31T19:49:16.868Z,10.85
2022-12-31T19:51:44.016Z,9.90
2022-12-31T19:54:13.208Z,9.85
2022-12-31T19:56:40.524Z,10.48
2022-12-31T19:59:10.475Z,9.25
2022-12-31T20:01:38.028Z,10.07
2022-12-31T20:04:05.731Z,9.73
2022-12-31T20:06:32.854Z,9.63
2022-12-31T20:09:00.029Z,9.68
2022-12-31T20:11:27.172Z,9.05
2022-12-31T20:13:54.725Z,9.65
2022-12-31T20:16:27.084Z,8.30
2022-12-31T20:18:54.621Z,8.93
2022-12-31T20:21:25.825Z,8.98
2022-12-31T20:23:54.499Z,8.23
2022-12-31T20:26:24.267Z,9.02
2022-12-31T20:28:53.002Z,10.77
2022-12-31T20:31:25.017Z,11.05
2022-12-31T20:33:54.328Z,11.65
2022-12-31T20:36:22.606Z,12.55
2022-12-31T20:38:49.823Z,11.82
2022-12-31T20:41:20.809Z,11.25
2022-12-31T20:43:48.343Z,11.32
2022-12-31T20:46:22.543Z,11.68
2022-12-31T20:48:51.820Z,42.53
2022-12-31T20:51:20.323Z,20.70
2022-12-31T20:53:55.598Z,16.58
2022-12-31T20:56:28.489Z,17.65
2022-12-31T20:58:56.618Z,15.15
2022-12-31T21:01:25.594Z,15.60
2022-12-31T21:04:10.644Z,15.85
2022-12-31T21:06:37.857Z,13.57
2022-12-31T21:09:07.693Z,12.60
2022-12-31T21:11:54.049Z,12.82
2022-12-31T21:14:21.382Z,11.50
2022-12-31T21:16:48.431Z,10.63
2022-12-31T21:19:15.570Z,10.98
2022-12-31T21:21:42.694Z,10.73
2022-12-31T21:24:10.120Z,9.25
2022-12-31T21:26:37.318Z,8.23
2022-12-31T21:29:04.395Z,7.55
2022-12-31T21:31:31.498Z,7.15
2022-12-31T21:33:58.761Z,6.90
2022-12-31T21:36:25.873Z,6.45
2022-12-31T21:38:52.986Z,6.43
2022-12-31T21:41:39.779Z,5.85
2022-12-31T21:44:07.008Z,5.65
2022-12-31T21:46:34.865Z,6.28
2022-12-31T21:49:02.090Z,6.40
2022-12-31T21:51:29.547Z,6.05
2022-12-31T21:53:57.669Z,5.90
2022-12-31T21:56:25.050Z,4.85
2022-12-31T21:59:17.236Z,5.32
2022-12-31T22:02:03.372Z,4.80
2022-12-31T22:07:17.815Z,5.80
2022-12-31T22:09:44.898Z,6.45
2022-12-31T22:12:12.247Z,7.32
2022-12-31T22:14:39.420Z,6.35
2022-12-31T22:17:26.553Z,6.45
2022-12-31T22:20:25.226Z,6.32
2022-12-31T22:22:40.922Z,7.47
2022-12-31T22:25:08.665Z,8.13
2022-12-31T22:27:35.762Z,10.05
2022-12-31T22:30:02.927Z,9.60
2022-12-31T22:32:29.957Z,8.68
2022-12-31T22:34:56.992Z,10.35
2022-12-31T22:40:11.701Z,10.20
2022-12-31T22:42:39.052Z,13.27
2022-12-31T22:45:07.851Z,16.27
2022-12-31T22:47:35.623Z,12.88
2022-12-31T22:50:02.680Z,11.98
2022-12-31T22:52:29.684Z,11.02
2022-12-31T22:54:59.855Z,9.60
2022-12-31T22:57:26.918Z,8.32
2022-12-31T22:59:53.972Z,7.85
2022-12-31T23:02:21.401Z,7.88
2022-12-31T23:04:48.475Z,7.88
2022-12-31T23:07:15.614Z,7.63
2022-12-31T23:10:01.143Z,16.92
2022-12-31T23:12:28.187Z,31.60
2022-12-31T23:15:13.890Z,42.83
2022-12-31T23:17:59.725Z,67.80
2022-12-31T23:20:45.436Z,46.13
2022-12-31T23:23:16.991Z,43.05
2022-12-31T23:25:48.004Z,49.75
2022-12-31T23:28:22.310Z,36.17
2022-12-31T23:30:51.555Z,29.05
2022-12-31T23:33:22.846Z,26.40
2022-12-31T23:35:50.076Z,22.25
2022-12-31T23:38:18.458Z,23.88
2022-12-31T23:40:46.193Z,20.17
2022-12-31T23:43:21.880Z,16.88
2022-12-31T23:45:52.535Z,16.35
2022-12-31T23:48:20.051Z,21.73
2022-12-31T23:50:53.431Z,26.30
2022-12-31T23:53:24.729Z,33.22
2022-12-31T23:55:52.819Z,41.05
2022-12-31T23:58:21.251Z,46.75
